RAM930 GMMN-LSGG
Flight info
| Callsign | RAM930 |
|---|---|
| Flight time | N/A |
| Altitude | 36000 |
| Route | TOLSI UG5 KORIS DCT MAR DCT TOPTU DCT TOU DCT GAI DCT MEN DCT NINUN DCT LTP DCT BELUS |
| Aircraft | B38M/M-SDE1FGHILORVWXY/HB1 |
Departure
| Time | 2026-04-27 16:50 |
|---|---|
| Airport | Mohammed V International Airport (GMMN) |
Arrival
| Time | N/A |
|---|---|
| Airport | Geneva International Airport (LSGG) |
| Time | Latitude | Longitude | Altitude | Speed | Heading |
|---|---|---|---|---|---|
| 2026-04-27 16:09 | 33.37462 | -7.58284 | 655 ft | 0 kts | 65° |
| 2026-04-27 16:38 | 33.37461 | -7.58289 | 659 ft | 3 kts | 65° |
| 2026-04-27 16:39 | 33.37452 | -7.58311 | 657 ft | 3 kts | 65° |
| 2026-04-27 16:39 | 33.37445 | -7.58331 | 658 ft | 3 kts | 66° |
| 2026-04-27 16:39 | 33.37437 | -7.58354 | 658 ft | 3 kts | 76° |
| 2026-04-27 16:39 | 33.37434 | -7.58378 | 658 ft | 3 kts | 85° |
| 2026-04-27 16:40 | 33.37433 | -7.58403 | 658 ft | 2 kts | 92° |
| 2026-04-27 16:40 | 33.37433 | -7.58410 | 658 ft | 0 kts | 92° |
| 2026-04-27 16:42 | 33.37432 | -7.58401 | 657 ft | 2 kts | 102° |
| 2026-04-27 16:42 | 33.37412 | -7.58376 | 657 ft | 6 kts | 154° |
| 2026-04-27 16:42 | 33.37365 | -7.58358 | 658 ft | 8 kts | 163° |
| 2026-04-27 16:43 | 33.37303 | -7.58337 | 656 ft | 10 kts | 164° |
| 2026-04-27 16:43 | 33.37231 | -7.58313 | 655 ft | 11 kts | 164° |
| 2026-04-27 16:43 | 33.37160 | -7.58290 | 655 ft | 11 kts | 164° |
| 2026-04-27 16:43 | 33.37081 | -7.58263 | 658 ft | 12 kts | 164° |
| 2026-04-27 16:44 | 33.37000 | -7.58237 | 655 ft | 11 kts | 165° |
| 2026-04-27 16:44 | 33.36943 | -7.58255 | 656 ft | 9 kts | 242° |
| 2026-04-27 16:44 | 33.36922 | -7.58338 | 659 ft | 11 kts | 255° |
| 2026-04-27 16:44 | 33.36899 | -7.58433 | 655 ft | 11 kts | 251° |
| 2026-04-27 16:45 | 33.36849 | -7.58462 | 655 ft | 9 kts | 166° |
| 2026-04-27 16:45 | 33.36778 | -7.58438 | 655 ft | 14 kts | 164° |
| 2026-04-27 16:45 | 33.36669 | -7.58401 | 656 ft | 18 kts | 164° |
| 2026-04-27 16:45 | 33.36545 | -7.58359 | 657 ft | 18 kts | 164° |
| 2026-04-27 16:46 | 33.36418 | -7.58316 | 657 ft | 20 kts | 164° |
| 2026-04-27 16:46 | 33.36277 | -7.58267 | 655 ft | 22 kts | 163° |
| 2026-04-27 16:46 | 33.36127 | -7.58215 | 655 ft | 23 kts | 164° |
| 2026-04-27 16:46 | 33.35983 | -7.58165 | 655 ft | 21 kts | 164° |
| 2026-04-27 16:47 | 33.35835 | -7.58115 | 655 ft | 23 kts | 164° |
| 2026-04-27 16:47 | 33.35678 | -7.58062 | 656 ft | 24 kts | 164° |
| 2026-04-27 16:47 | 33.35523 | -7.58009 | 656 ft | 23 kts | 164° |
| 2026-04-27 16:47 | 33.35377 | -7.57960 | 655 ft | 18 kts | 164° |
| 2026-04-27 16:48 | 33.35283 | -7.57955 | 658 ft | 14 kts | 212° |
| 2026-04-27 16:48 | 33.35242 | -7.58056 | 655 ft | 14 kts | 253° |
| 2026-04-27 16:48 | 33.35214 | -7.58175 | 656 ft | 15 kts | 254° |
| 2026-04-27 16:49 | 33.35305 | -7.58291 | 659 ft | 15 kts | 343° |
| 2026-04-27 16:49 | 33.35522 | -7.58366 | 651 ft | 65 kts | 343° |
| 2026-04-27 16:49 | 33.36177 | -7.58593 | 651 ft | 128 kts | 343° |
| 2026-04-27 16:49 | 33.37177 | -7.58941 | 820 ft | 163 kts | 342° |
| 2026-04-27 16:50 | 33.38219 | -7.59531 | 1404 ft | 170 kts | 331° |
| 2026-04-27 16:50 | 33.39319 | -7.60211 | 1977 ft | 182 kts | 345° |
| 2026-04-27 16:50 | 33.40556 | -7.60617 | 2654 ft | 186 kts | 351° |
| 2026-04-27 16:50 | 33.41818 | -7.60939 | 3360 ft | 189 kts | 360° |
| 2026-04-27 16:51 | 33.43087 | -7.60595 | 4016 ft | 191 kts | 28° |
| 2026-04-27 16:51 | 33.44156 | -7.59604 | 4596 ft | 199 kts | 45° |
| 2026-04-27 16:51 | 33.45297 | -7.58635 | 5135 ft | 207 kts | 21° |
| 2026-04-27 16:51 | 33.46718 | -7.58078 | 5565 ft | 226 kts | 15° |
| 2026-04-27 16:52 | 33.48299 | -7.57492 | 5899 ft | 249 kts | 15° |
| 2026-04-27 16:52 | 33.50020 | -7.56824 | 6351 ft | 269 kts | 15° |
| 2026-04-27 16:52 | 33.51856 | -7.56095 | 6835 ft | 286 kts | 16° |
| 2026-04-27 16:52 | 33.53777 | -7.55319 | 7493 ft | 294 kts | 17° |
| 2026-04-27 16:53 | 33.55724 | -7.54525 | 8292 ft | 298 kts | 17° |
| 2026-04-27 16:53 | 33.57699 | -7.53717 | 9100 ft | 302 kts | 17° |
| 2026-04-27 16:53 | 33.59701 | -7.52896 | 9855 ft | 306 kts | 18° |
| 2026-04-27 16:53 | 33.61756 | -7.52051 | 10366 ft | 321 kts | 18° |
| 2026-04-27 16:54 | 33.63930 | -7.51157 | 10794 ft | 338 kts | 18° |
| 2026-04-27 16:54 | 33.66190 | -7.50225 | 11315 ft | 349 kts | 18° |
| 2026-04-27 16:54 | 33.68486 | -7.49280 | 12137 ft | 350 kts | 19° |
| 2026-04-27 16:54 | 33.70806 | -7.48325 | 12895 ft | 355 kts | 19° |
| 2026-04-27 16:55 | 33.73150 | -7.47360 | 13703 ft | 358 kts | 19° |
| 2026-04-27 16:55 | 33.75523 | -7.46384 | 14434 ft | 361 kts | 19° |
| 2026-04-27 16:55 | 33.77909 | -7.45401 | 15202 ft | 364 kts | 19° |
| 2026-04-27 16:55 | 33.80317 | -7.44408 | 15941 ft | 368 kts | 19° |
| 2026-04-27 16:56 | 33.82749 | -7.43405 | 16654 ft | 371 kts | 19° |
| 2026-04-27 16:56 | 33.85204 | -7.42391 | 17375 ft | 374 kts | 19° |
| 2026-04-27 16:56 | 33.87643 | -7.41384 | 18089 ft | 377 kts | 19° |
| 2026-04-27 16:56 | 33.90134 | -7.40355 | 18712 ft | 380 kts | 19° |
| 2026-04-27 16:57 | 33.92639 | -7.39319 | 19297 ft | 383 kts | 19° |
| 2026-04-27 16:57 | 33.95172 | -7.38271 | 19899 ft | 386 kts | 19° |
| 2026-04-27 16:57 | 33.97719 | -7.37216 | 20493 ft | 389 kts | 19° |
| 2026-04-27 16:57 | 34.00286 | -7.36152 | 21062 ft | 392 kts | 19° |
| 2026-04-27 16:58 | 34.02873 | -7.35080 | 21637 ft | 395 kts | 19° |
| 2026-04-27 16:58 | 34.05478 | -7.33999 | 22198 ft | 398 kts | 19° |
| 2026-04-27 16:58 | 34.08101 | -7.32911 | 22759 ft | 401 kts | 18° |
| 2026-04-27 16:58 | 34.10749 | -7.31810 | 23320 ft | 404 kts | 19° |
| 2026-04-27 16:59 | 34.13317 | -7.30410 | 23755 ft | 407 kts | 27° |
| 2026-04-27 16:59 | 34.15844 | -7.28855 | 24219 ft | 409 kts | 26° |
| 2026-04-27 16:59 | 34.18396 | -7.27288 | 24640 ft | 413 kts | 26° |
| 2026-04-27 16:59 | 34.20962 | -7.25708 | 25072 ft | 415 kts | 26° |
| 2026-04-27 17:00 | 34.25267 | -7.23055 | 25783 ft | 420 kts | 26° |
| 2026-04-27 17:00 | 34.28763 | -7.20898 | 26340 ft | 424 kts | 26° |
| 2026-04-27 17:00 | 34.31402 | -7.19269 | 26754 ft | 427 kts | 26° |
| 2026-04-27 17:01 | 34.34054 | -7.17630 | 27136 ft | 429 kts | 26° |
| 2026-04-27 17:01 | 34.36723 | -7.15980 | 27550 ft | 432 kts | 27° |
| 2026-04-27 17:01 | 34.39401 | -7.14322 | 27942 ft | 434 kts | 27° |
| 2026-04-27 17:01 | 34.42102 | -7.12650 | 28338 ft | 437 kts | 27° |
| 2026-04-27 17:02 | 34.44818 | -7.10966 | 28743 ft | 439 kts | 27° |
| 2026-04-27 17:02 | 34.47547 | -7.09274 | 29124 ft | 442 kts | 27° |
| 2026-04-27 17:02 | 34.50285 | -7.07575 | 29490 ft | 444 kts | 27° |
| 2026-04-27 17:02 | 34.53043 | -7.05862 | 29838 ft | 447 kts | 27° |
| 2026-04-27 17:03 | 34.55817 | -7.04137 | 30174 ft | 449 kts | 26° |
| 2026-04-27 17:03 | 34.58601 | -7.02406 | 30477 ft | 451 kts | 26° |
| 2026-04-27 17:03 | 34.61410 | -7.00683 | 30778 ft | 453 kts | 26° |
| 2026-04-27 17:03 | 34.64237 | -6.98956 | 31076 ft | 456 kts | 26° |
| 2026-04-27 17:04 | 34.67070 | -6.97221 | 31371 ft | 458 kts | 26° |
| 2026-04-27 17:04 | 34.69925 | -6.95472 | 31678 ft | 460 kts | 26° |
| 2026-04-27 17:04 | 34.72785 | -6.93717 | 31949 ft | 462 kts | 26° |
| 2026-04-27 17:04 | 34.75658 | -6.91953 | 32252 ft | 464 kts | 26° |
| 2026-04-27 17:05 | 34.78546 | -6.90179 | 32593 ft | 465 kts | 26° |
| 2026-04-27 17:05 | 34.81430 | -6.88405 | 32982 ft | 464 kts | 26° |
| 2026-04-27 17:05 | 34.84305 | -6.86636 | 33381 ft | 463 kts | 26° |
| 2026-04-27 17:05 | 34.86208 | -6.85464 | 33654 ft | 463 kts | 26° |
| 2026-04-27 17:06 | 34.90047 | -6.83098 | 34135 ft | 461 kts | 26° |
| 2026-04-27 17:06 | 34.92909 | -6.81332 | 34436 ft | 461 kts | 26° |
| 2026-04-27 17:06 | 34.95738 | -6.79586 | 34740 ft | 461 kts | 26° |
| 2026-04-27 17:06 | 34.98595 | -6.77822 | 35040 ft | 461 kts | 25° |
| 2026-04-27 17:07 | 35.01454 | -6.76053 | 35334 ft | 461 kts | 25° |
| 2026-04-27 17:07 | 35.04311 | -6.74285 | 35598 ft | 461 kts | 25° |
| 2026-04-27 17:07 | 35.07167 | -6.72517 | 35809 ft | 462 kts | 25° |
| 2026-04-27 17:08 | 35.11005 | -6.70138 | 35812 ft | 460 kts | 25° |